LFLCLFLW

Guest
Details From LFLC - Clermont-Ferrand_Auvergne
To LFLW - Aurillac
Flight Number -
Tags generated
Created
Modified
Stats Distance 62 nm / 115 km
Max Altitude 0 ft / 0 m
Waypoints 2
Social Downloads 0
Likes 0
Share VATSIM

Download

Looking for another format? Having issues loading an existing format? Contact us
Advertisement - Login to hide

Notes

Basic altitude profile: - Ascent Rate: 1800ft/min - Ascent Speed: 180kts - Cruise Altitude: 7000ft - Cruise Speed: 235kts - Descent Rate: 1000ft/min - Descent Speed: 180kts Options: - Use NATs: yes - Use PACOTS: yes - Use low airways: no - Use high airways: no

Route

LFLC LFLW

ID Type Via Altitude Latitude Longitude Leg Dist Tot Dist Heading (true) Name
O LFLC APT - 0 ft / 0 m 45.78671˚ 3.16997˚ - 0 nm - Clermont-Ferrand_Auvergne
O LFLW APT - 0 ft / 0 m 44.89142˚ 2.42219˚ 62 nm 62 nm 211° / 210° Aurillac

Altitude Profile

Advertisement - Login to hide

LFLC

Details ICAO LFLC (CFE)
Name Clermont-Ferrand_Auvergne
Region France
Timezone Europe/Paris (UTC+1.0)
Stats Elevation 1,089 ft / 332 m (AMSL)
Location 45.786712° 3.169967°
Runways 1
Magnetic Variation 0.980° E

METAR

LFLC 160700Z AUTO 33004KT 290V030 9999 FEW024 BKN032 BKN041 03/01 Q1013 TEMPO SHRA

Decode

TAF

TAF LFLC 160200Z 1603/1703 32012KT 9999 BKN030 PROB30 TEMPO 1603/1614 34012KT SHRA

Decode

Departure Runways

ID Width Length Bearing (true) Bearing (mag) Surface Threshold Offset Overrun Length
08 148 ft / 45 m 9,878 ft / 3,011 m 81.95° 80.97° Asphalt 0 ft / 0 m 0 ft / 0 m
26 148 ft / 45 m 9,878 ft / 3,011 m 261.98° 261.00° Asphalt 476 ft / 145 m 0 ft / 0 m

LFLW

Details ICAO LFLW (AUR)
Name Aurillac
Region France
Timezone Europe/Paris (UTC+1.0)
Stats Elevation 2,096 ft / 639 m (AMSL)
Location 44.891416° 2.422195°
Runways 1
Magnetic Variation 0.812° E

METAR

LFLW 160700Z AUTO 31008KT 9999 OVC007 00/M01 Q1013 NOSIG

Decode

TAF

Not found

Destination Runways

ID Width Length Bearing (true) Bearing (mag) Surface Threshold Offset Overrun Length
15 98 ft / 30 m 5,430 ft / 1,655 m 150.01° 149.20° Asphalt 0 ft / 0 m 0 ft / 0 m
33 98 ft / 30 m 5,430 ft / 1,655 m 330.01° 329.20° Asphalt 0 ft / 0 m 0 ft / 0 m

Approach Navaids

Runway Type Ident Frequency Range Bearing (true) Bearing (mag) Slope Elevation
15 Localiser AR 110.30 MHz 18 nm / 33 km 150.87° 150.06° - 2,057 ft / 627 m (AMSL)
15 Glidescope AR 110.30 MHz 10 nm / 19 km 150.01° 149.20° 3.00° 2,106 ft / 642 m (AMSL)

Popular Alternatives